Time;durP1;ratioP1;P1;durP2;ratioP2;P2;SDS_P1;SDS_P2;PMS_P1;PMS_P2;Temp;Humidity;BMP_temperature;BMP_pressure;BME280_temperature;BME280_humidity;BME280_pressure;Samples;Min_cycle;Max_cycle;Signal;HPM_P1;HPM_P2
2021/12/12 00:00:46;;;;;;;42.47;25.48;;;4.80;99.90;;;;;;4937796;28;20051;-74
2021/12/12 00:03:20;;;;;;;50.90;24.98;;;4.80;99.90;;;;;;4922471;29;20043;-74
2021/12/12 00:05:54;;;;;;;44.63;25.50;;;4.80;99.90;;;;;;4938472;29;20051;-75
2021/12/12 00:08:22;;;;;;;45.75;24.35;;;4.80;99.90;;;;;;4937425;29;20191;-75
2021/12/12 00:10:53;;;;;;;50.13;25.67;;;4.80;99.90;;;;;;4920461;28;20047;-74
2021/12/12 00:13:26;;;;;;;45.15;25.52;;;5.10;99.90;;;;;;4922090;29;20035;-74
2021/12/12 00:15:52;;;;;;;47.03;25.60;;;4.80;99.90;;;;;;4937979;29;20043;-74
2021/12/12 00:18:17;;;;;;;49.05;24.63;;;4.80;99.90;;;;;;4955037;28;20119;-75
2021/12/12 00:20:44;;;;;;;43.63;25.38;;;5.50;99.90;;;;;;4941463;29;20042;-76
2021/12/12 00:23:10;;;;;;;46.65;25.50;;;4.90;99.90;;;;;;4906310;29;20395;-76
2021/12/12 00:25:41;;;;;;;42.85;24.52;;;5.20;99.90;;;;;;4906100;29;20106;-76
2021/12/12 00:28:09;;;;;;;46.80;25.63;;;5.40;99.90;;;;;;4920243;29;20349;-76
2021/12/12 00:30:35;;;;;;;47.17;24.63;;;4.90;99.90;;;;;;4937191;29;20322;-76
2021/12/12 00:33:02;;;;;;;48.50;25.48;;;5.20;99.90;;;;;;4937419;29;20491;-75
2021/12/12 00:35:29;;;;;;;48.25;26.15;;;4.90;99.90;;;;;;4937578;29;20039;-76
2021/12/12 00:38:01;;;;;;;48.15;24.48;;;5.00;99.90;;;;;;4937663;29;20142;-76
2021/12/12 00:40:33;;;;;;;51.45;26.50;;;4.90;99.90;;;;;;4939358;29;20044;-76
2021/12/12 00:43:05;;;;;;;38.50;24.30;;;4.90;99.90;;;;;;4918102;29;20052;-76
2021/12/12 00:45:31;;;;;;;43.78;26.20;;;5.00;99.90;;;;;;4933503;29;20390;-75
2021/12/12 00:47:58;;;;;;;48.08;26.10;;;4.90;99.90;;;;;;4935521;29;20040;-76
2021/12/12 00:50:37;;;;;;;51.35;26.45;;;4.90;99.90;;;;;;4933945;29;20047;-76
2021/12/12 00:53:05;;;;;;;51.63;26.63;;;4.90;99.90;;;;;;4933832;29;20059;-76
2021/12/12 00:55:37;;;;;;;49.35;26.13;;;4.90;99.90;;;;;;4917994;29;20143;-76
2021/12/12 00:58:09;;;;;;;41.33;25.92;;;4.90;99.90;;;;;;4933501;29;20090;-75
2021/12/12 01:00:47;;;;;;;48.25;26.45;;;4.90;99.90;;;;;;4964383;28;20047;-76
2021/12/12 01:03:14;;;;;;;43.65;28.55;;;5.10;99.90;;;;;;4917544;29;20340;-76
2021/12/12 01:05:40;;;;;;;51.08;27.38;;;5.00;99.90;;;;;;4902195;29;20488;-77
2021/12/12 01:08:07;;;;;;;50.65;27.98;;;5.40;99.90;;;;;;4933952;29;20039;-76
2021/12/12 01:10:47;;;;;;;47.50;27.90;;;5.00;99.90;;;;;;4949592;28;20408;-76
2021/12/12 01:13:13;;;;;;;57.05;28.38;;;5.00;99.90;;;;;;4933642;29;20504;-76
2021/12/12 01:15:55;;;;;;;55.60;28.52;;;5.00;99.90;;;;;;4915903;29;20050;-76
2021/12/12 01:18:26;;;;;;;54.40;29.15;;;5.00;99.90;;;;;;4933295;29;20101;-76
2021/12/12 01:21:00;;;;;;;51.70;30.02;;;5.00;99.90;;;;;;4935000;29;20039;-76
2021/12/12 01:23:35;;;;;;;53.05;28.80;;;5.00;99.90;;;;;;4933559;29;20028;-77
2021/12/12 01:26:04;;;;;;;49.95;28.55;;;5.00;99.90;;;;;;4966174;28;20073;-76
2021/12/12 01:28:32;;;;;;;57.28;30.23;;;4.90;99.90;;;;;;4966268;28;20043;-76
2021/12/12 01:31:02;;;;;;;52.50;29.30;;;5.00;99.90;;;;;;4917930;29;20051;-76
2021/12/12 01:33:33;;;;;;;50.20;29.25;;;5.10;99.90;;;;;;4932054;29;20123;-76
2021/12/12 01:36:05;;;;;;;59.13;30.05;;;5.00;99.90;;;;;;4917909;29;20056;-76
2021/12/12 01:38:55;;;;;;;48.42;28.85;;;4.90;99.90;;;;;;4949688;29;20044;-76
2021/12/12 01:41:30;;;;;;;55.63;29.10;;;4.90;99.90;;;;;;4957998;28;20056;-76
2021/12/12 01:44:01;;;;;;;60.30;30.48;;;5.00;99.90;;;;;;4932132;29;20048;-76
2021/12/12 01:46:33;;;;;;;53.20;30.15;;;5.60;99.90;;;;;;4934647;29;20122;-76
2021/12/12 01:49:08;;;;;;;49.53;29.52;;;5.00;99.90;;;;;;4933756;29;20040;-77
2021/12/12 01:51:34;;;;;;;62.03;31.42;;;5.00;99.90;;;;;;4931960;29;20130;-76
2021/12/12 01:54:03;;;;;;;61.50;31.40;;;5.00;99.90;;;;;;4935058;29;20044;-76
2021/12/12 01:56:34;;;;;;;63.35;32.28;;;4.90;99.90;;;;;;4933616;29;20051;-76
2021/12/12 01:59:05;;;;;;;53.95;29.88;;;5.70;99.90;;;;;;4934406;29;20119;-76
2021/12/12 02:02:08;;;;;;;55.97;30.60;;;5.00;99.90;;;;;;4917549;29;20408;-76
2021/12/12 02:04:42;;;;;;;60.40;30.52;;;5.00;99.90;;;;;;4878878;29;20548;-76
2021/12/12 02:07:10;;;;;;;61.53;30.88;;;5.00;99.90;;;;;;4927129;29;20044;-76
2021/12/12 02:09:37;;;;;;;62.25;30.70;;;5.00;99.90;;;;;;4917009;29;20092;-76
2021/12/12 02:12:04;;;;;;;64.00;31.83;;;5.00;99.90;;;;;;4920245;29;20055;-77
2021/12/12 02:14:32;;;;;;;56.15;30.30;;;4.90;99.90;;;;;;4921179;29;20139;-76
2021/12/12 02:17:17;;;;;;;59.10;30.10;;;5.00;99.90;;;;;;4921270;29;20388;-76
2021/12/12 02:35:53;;;;;;;54.03;28.08;;;5.00;99.90;;;;;;4923472;29;20404;-76
2021/12/12 02:38:24;;;;;;;54.38;27.23;;;5.00;99.90;;;;;;4937628;29;20057;-76
2021/12/12 02:41:01;;;;;;;62.88;28.27;;;5.00;99.90;;;;;;4918396;29;20079;-76
2021/12/12 02:43:32;;;;;;;59.92;29.00;;;5.00;99.90;;;;;;4920074;29;20103;-75
2021/12/12 02:45:58;;;;;;;55.70;27.95;;;5.40;99.90;;;;;;4920121;29;20031;-76
2021/12/12 02:48:27;;;;;;;54.92;28.55;;;5.10;99.90;;;;;;4936562;29;20040;-76
2021/12/12 02:50:53;;;;;;;57.15;26.08;;;5.00;99.90;;;;;;4936427;29;20039;-76
2021/12/12 02:53:33;;;;;;;46.42;26.38;;;5.10;99.90;;;;;;4920204;29;20044;-77
2021/12/12 02:56:09;;;;;;;54.92;27.10;;;5.10;99.90;;;;;;4937163;29;20039;-77
2021/12/12 02:58:35;;;;;;;52.53;25.38;;;5.10;99.90;;;;;;4935117;29;20063;-77
2021/12/12 03:01:14;;;;;;;55.75;27.58;;;5.10;99.90;;;;;;4919891;29;20043;-77
2021/12/12 03:03:41;;;;;;;48.95;25.90;;;5.10;99.90;;;;;;4936130;29;20103;-75
2021/12/12 03:06:10;;;;;;;54.38;26.88;;;5.10;99.90;;;;;;4937514;29;20067;-75
2021/12/12 03:08:38;;;;;;;47.25;24.40;;;5.10;99.90;;;;;;4935718;29;20119;-75
2021/12/12 03:11:04;;;;;;;51.30;24.60;;;5.10;99.90;;;;;;4967864;28;20062;-75
2021/12/12 03:13:30;;;;;;;55.03;25.58;;;5.20;99.90;;;;;;4920262;29;20047;-75
2021/12/12 03:15:56;;;;;;;52.67;25.17;;;5.10;99.90;;;;;;4935770;29;20389;-75
2021/12/12 03:18:39;;;;;;;41.08;23.00;;;5.10;99.90;;;;;;4920229;29;20044;-77
2021/12/12 03:21:15;;;;;;;53.00;24.77;;;5.10;99.90;;;;;;4935543;29;20052;-77
2021/12/12 03:23:52;;;;;;;45.97;22.90;;;5.20;99.90;;;;;;4967836;28;20130;-75
2021/12/12 03:26:19;;;;;;;41.17;23.02;;;5.20;99.90;;;;;;4936934;29;20051;-75
2021/12/12 03:28:51;;;;;;;44.85;21.77;;;5.20;99.90;;;;;;4937088;29;20039;-75
2021/12/12 03:31:48;;;;;;;54.67;23.35;;;5.20;99.90;;;;;;4966446;28;20054;-75
2021/12/12 03:34:17;;;;;;;48.85;20.88;;;5.20;99.90;;;;;;4934199;29;20062;-77
2021/12/12 03:36:44;;;;;;;38.58;19.85;;;5.20;99.90;;;;;;4967681;28;20047;-77
2021/12/12 03:39:17;;;;;;;37.33;19.95;;;5.20;99.90;;;;;;4919650;29;20131;-77
2021/12/12 03:41:44;;;;;;;35.88;20.65;;;5.20;99.90;;;;;;4919739;29;20412;-77
2021/12/12 03:44:20;;;;;;;37.30;19.80;;;5.30;99.90;;;;;;4935513;29;20515;-77
2021/12/12 03:46:51;;;;;;;42.05;20.48;;;5.40;99.90;;;;;;4935722;29;20039;-77
2021/12/12 03:49:21;;;;;;;42.33;19.05;;;5.30;99.90;;;;;;4935577;29;20445;-77
2021/12/12 03:51:48;;;;;;;36.63;19.23;;;5.30;99.90;;;;;;4935764;29;20400;-76
2021/12/12 03:54:14;;;;;;;32.90;18.42;;;6.00;99.90;;;;;;4935472;29;20130;-76
2021/12/12 03:56:42;;;;;;;38.28;19.58;;;6.00;99.90;;;;;;4936758;29;20175;-76
2021/12/12 03:59:08;;;;;;;33.70;18.10;;;5.30;99.90;;;;;;4967637;28;20134;-76
2021/12/12 04:01:38;;;;;;;33.92;18.13;;;5.30;99.90;;;;;;4919091;29;20488;-76
2021/12/12 04:04:13;;;;;;;37.13;17.60;;;6.00;99.90;;;;;;4918391;29;20403;-76
2021/12/12 04:06:40;;;;;;;32.90;16.02;;;5.40;99.90;;;;;;4936504;29;20046;-76
2021/12/12 04:09:08;;;;;;;34.78;16.20;;;5.40;99.90;;;;;;4951302;29;20452;-76
2021/12/12 04:11:39;;;;;;;28.55;16.52;;;6.10;99.90;;;;;;4919345;29;20111;-76
2021/12/12 04:14:06;;;;;;;28.65;15.60;;;5.40;99.90;;;;;;4935078;29;20075;-76
2021/12/12 04:16:40;;;;;;;27.00;15.70;;;5.40;99.90;;;;;;4951009;28;20111;-76
2021/12/12 04:19:07;;;;;;;26.23;15.07;;;5.60;99.90;;;;;;4967285;28;20488;-76
2021/12/12 04:21:34;;;;;;;30.27;14.70;;;5.40;99.90;;;;;;4933328;29;20048;-76
2021/12/12 04:24:00;;;;;;;25.42;14.45;;;5.40;99.90;;;;;;4949623;29;20051;-76
2021/12/12 04:26:33;;;;;;;25.60;14.43;;;5.60;99.90;;;;;;4918917;29;20391;-75
2021/12/12 04:29:28;;;;;;;22.83;14.68;;;5.40;99.90;;;;;;4967132;28;20075;-75
2021/12/12 04:31:57;;;;;;;26.83;15.30;;;5.40;99.90;;;;;;4935878;29;20046;-75
2021/12/12 04:34:29;;;;;;;23.23;13.95;;;5.40;99.90;;;;;;4934609;29;20047;-75
2021/12/12 04:36:56;;;;;;;22.42;14.18;;;5.40;99.90;;;;;;4934350;29;20039;-75
2021/12/12 04:39:25;;;;;;;23.08;13.55;;;5.40;99.90;;;;;;4933724;29;20090;-75
2021/12/12 04:41:54;;;;;;;23.90;13.10;;;5.40;99.90;;;;;;4935392;29;20090;-75
2021/12/12 04:44:29;;;;;;;24.42;13.70;;;5.40;99.90;;;;;;4969889;28;20065;-75
2021/12/12 04:49:56;;;;;;;21.65;12.48;;;5.40;99.90;;;;;;4954285;29;20495;-76
2021/12/12 04:52:43;;;;;;;20.75;13.15;;;5.40;99.90;;;;;;4921284;29;20051;-76
2021/12/12 04:55:24;;;;;;;23.00;13.55;;;5.40;99.90;;;;;;4935550;29;20507;-76
2021/12/12 04:58:15;;;;;;;22.52;13.02;;;5.40;99.90;;;;;;4921536;29;20051;-76
2021/12/12 05:00:49;;;;;;;19.70;12.00;;;5.50;99.90;;;;;;4954237;29;20415;-76
2021/12/12 05:03:36;;;;;;;16.67;12.30;;;5.40;99.90;;;;;;4953718;29;20042;-76
2021/12/12 05:06:10;;;;;;;18.23;12.07;;;5.40;99.90;;;;;;4937240;29;20507;-76
2021/12/12 05:08:41;;;;;;;16.13;11.75;;;5.40;99.90;;;;;;4937408;29;20039;-76
2021/12/12 05:11:38;;;;;;;18.05;12.10;;;6.00;99.90;;;;;;4953142;29;20039;-76
2021/12/12 05:14:09;;;;;;;;;;;5.40;99.90;;;;;;4904938;29;20055;-76
2021/12/12 05:16:41;;;;;;;16.40;10.57;;;5.40;99.90;;;;;;4954628;29;19919;-76
2021/12/12 05:19:15;;;;;;;20.65;11.23;;;5.40;99.90;;;;;;4954489;29;20031;-76
2021/12/12 05:21:51;;;;;;;14.35;10.68;;;5.40;99.90;;;;;;4954336;29;20133;-75
2021/12/12 05:24:20;;;;;;;13.10;9.93;;;5.40;99.90;;;;;;4936941;29;20047;-75
2021/12/12 05:26:55;;;;;;;16.00;11.02;;;5.40;99.90;;;;;;4920029;29;20058;-76
2021/12/12 05:29:32;;;;;;;14.00;10.55;;;5.40;99.90;;;;;;4954359;29;20066;-76
2021/12/12 05:32:02;;;;;;;13.55;10.63;;;5.50;99.90;;;;;;4937395;29;20043;-76
2021/12/12 05:34:30;;;;;;;12.30;9.57;;;5.40;99.90;;;;;;4937364;29;20079;-77
2021/12/12 05:37:00;;;;;;;18.60;10.93;;;5.50;99.90;;;;;;4943297;29;20039;-77
2021/12/12 05:39:28;;;;;;;18.25;10.77;;;5.50;99.90;;;;;;4929253;29;20074;-77
2021/12/12 05:41:57;;;;;;;15.07;10.30;;;6.30;99.90;;;;;;4959117;29;20062;-76
2021/12/12 05:44:25;;;;;;;16.45;10.45;;;5.80;99.90;;;;;;4974127;28;20405;-77
2021/12/12 05:47:00;;;;;;;15.68;10.73;;;5.50;99.90;;;;;;4941782;29;20094;-76
2021/12/12 05:49:27;;;;;;;14.38;9.95;;;5.50;99.90;;;;;;4961225;29;20400;-76
2021/12/12 05:51:53;;;;;;;18.48;11.80;;;5.50;99.90;;;;;;4927392;29;20043;-76
2021/12/12 05:54:19;;;;;;;15.70;10.63;;;5.50;99.90;;;;;;4944702;29;20041;-76
2021/12/12 05:56:47;;;;;;;15.13;10.85;;;5.50;99.90;;;;;;4959235;29;20051;-75
2021/12/12 05:59:14;;;;;;;15.02;10.32;;;5.60;99.90;;;;;;4941097;29;20082;-76
2021/12/12 06:01:40;;;;;;;19.10;11.30;;;5.60;99.90;;;;;;4940206;29;20071;-75
2021/12/12 06:04:06;;;;;;;13.98;10.57;;;5.70;99.90;;;;;;4941164;29;20058;-75
2021/12/12 06:06:37;;;;;;;15.20;10.80;;;6.00;99.90;;;;;;4924997;29;20046;-76
2021/12/12 06:09:06;;;;;;;18.10;11.45;;;5.60;99.90;;;;;;4940782;29;20047;-76
2021/12/12 06:11:34;;;;;;;15.38;11.52;;;5.60;99.90;;;;;;4925099;29;20457;-76
2021/12/12 06:14:01;;;;;;;15.98;11.48;;;5.70;99.90;;;;;;4957753;29;20047;-76
2021/12/12 06:16:31;;;;;;;13.48;10.93;;;5.50;99.90;;;;;;4957650;29;20118;-76
2021/12/12 06:19:07;;;;;;;15.30;11.48;;;6.00;99.90;;;;;;4940090;29;20130;-76
2021/12/12 06:21:33;;;;;;;18.17;11.90;;;5.70;99.90;;;;;;4957588;28;20451;-76
2021/12/12 06:24:00;;;;;;;16.75;11.38;;;5.70;99.90;;;;;;4940099;29;20503;-76
2021/12/12 06:26:26;;;;;;;15.77;10.95;;;5.70;99.90;;;;;;4939384;29;20039;-76
2021/12/12 06:28:52;;;;;;;16.83;11.45;;;5.70;99.90;;;;;;4924410;29;20220;-76
2021/12/12 06:31:19;;;;;;;15.18;11.85;;;5.70;99.90;;;;;;4955722;29;20448;-76
2021/12/12 06:33:45;;;;;;;14.35;11.27;;;6.10;99.90;;;;;;4939457;29;20058;-76
2021/12/12 06:36:13;;;;;;;17.45;11.00;;;5.80;99.90;;;;;;4924128;29;20415;-76
2021/12/12 06:38:42;;;;;;;15.43;11.10;;;5.80;99.90;;;;;;4940176;29;20126;-76
2021/12/12 06:41:09;;;;;;;18.92;11.02;;;5.80;99.90;;;;;;4968902;28;20051;-76
2021/12/12 06:43:36;;;;;;;16.45;11.05;;;5.80;99.90;;;;;;4936961;29;20400;-76
2021/12/12 06:46:05;;;;;;;17.73;12.10;;;5.80;99.90;;;;;;4968810;28;20039;-76
2021/12/12 06:48:32;;;;;;;14.95;11.77;;;6.60;99.90;;;;;;4938695;29;20051;-76
2021/12/12 06:51:00;;;;;;;14.30;11.45;;;5.80;99.90;;;;;;4920947;29;20052;-76
2021/12/12 06:53:29;;;;;;;15.27;11.27;;;6.20;99.90;;;;;;4937161;29;20400;-77
2021/12/12 06:55:57;;;;;;;17.25;11.20;;;5.90;99.90;;;;;;4919951;29;20052;-77
2021/12/12 06:58:28;;;;;;;16.65;12.23;;;6.30;99.90;;;;;;4936381;29;20050;-77
2021/12/12 07:00:58;;;;;;;14.43;11.32;;;5.90;99.90;;;;;;4935659;29;20127;-77
2021/12/12 07:03:27;;;;;;;20.52;11.90;;;5.90;99.90;;;;;;4937006;29;20051;-77
2021/12/12 07:05:53;;;;;;;16.35;11.90;;;5.90;99.90;;;;;;4968889;28;20493;-77
2021/12/12 07:08:24;;;;;;;16.77;12.05;;;6.70;99.90;;;;;;4920939;29;20421;-76
2021/12/12 07:10:50;;;;;;;18.45;12.55;;;6.00;99.90;;;;;;4935390;29;20050;-74
2021/12/12 07:13:17;;;;;;;15.32;11.75;;;6.90;99.90;;;;;;4935695;29;20047;-74
2021/12/12 07:15:50;;;;;;;16.70;11.07;;;6.00;99.90;;;;;;4936148;29;20051;-74
2021/12/12 07:18:20;;;;;;;18.13;13.10;;;6.10;99.90;;;;;;4936281;29;20038;-74
2021/12/12 07:20:52;;;;;;;16.85;12.98;;;6.00;99.90;;;;;;4936080;29;20046;-74
2021/12/12 07:23:19;;;;;;;16.17;12.27;;;6.00;99.90;;;;;;4937404;29;20464;-74
2021/12/12 07:25:46;;;;;;;17.58;11.93;;;6.10;99.90;;;;;;4935853;29;20096;-74
2021/12/12 07:28:13;;;;;;;17.70;12.60;;;6.80;99.90;;;;;;4919127;29;20134;-74
2021/12/12 07:30:42;;;;;;;21.08;13.20;;;6.20;99.90;;;;;;4937007;29;20492;-74
2021/12/12 07:33:09;;;;;;;16.20;12.07;;;6.10;99.90;;;;;;4935880;29;20043;-75
2021/12/12 07:35:38;;;;;;;17.65;12.90;;;6.80;99.90;;;;;;4952395;28;20071;-75
2021/12/12 07:38:10;;;;;;;23.00;13.82;;;6.10;99.90;;;;;;4936173;29;20051;-75
2021/12/12 07:40:37;;;;;;;18.77;13.20;;;6.20;99.90;;;;;;4924734;29;20063;-74
2021/12/12 07:43:04;;;;;;;19.35;13.13;;;6.20;99.90;;;;;;4919725;29;20048;-74
2021/12/12 07:45:32;;;;;;;18.83;13.48;;;6.20;99.90;;;;;;4932518;29;20062;-75
2021/12/12 07:47:57;;;;;;;22.73;13.52;;;6.20;99.90;;;;;;4938144;29;20500;-75
2021/12/12 07:50:25;;;;;;;21.30;13.73;;;6.20;99.90;;;;;;4955822;29;20051;-75
2021/12/12 07:52:55;;;;;;;19.25;14.25;;;6.20;99.90;;;;;;4955682;29;20043;-75
2021/12/12 07:55:25;;;;;;;21.10;13.60;;;6.30;99.90;;;;;;4938867;29;20054;-76
2021/12/12 07:57:51;;;;;;;24.35;14.43;;;6.30;99.90;;;;;;4955856;28;20102;-76
2021/12/12 08:00:20;;;;;;;20.05;13.57;;;6.40;99.90;;;;;;4938244;29;20055;-76
2021/12/12 08:02:51;;;;;;;19.33;14.35;;;6.40;99.90;;;;;;4969678;28;20043;-75
2021/12/12 08:05:18;;;;;;;19.40;13.85;;;6.40;99.90;;;;;;4938368;29;20047;-76
2021/12/12 08:07:48;;;;;;;24.50;14.35;;;6.30;99.90;;;;;;4954089;28;20081;-76
2021/12/12 08:10:15;;;;;;;19.83;14.18;;;6.40;99.90;;;;;;4955320;29;20051;-78
2021/12/12 08:12:42;;;;;;;22.73;14.27;;;6.50;99.90;;;;;;4936116;29;20579;-78
2021/12/12 08:15:14;;;;;;;22.00;14.63;;;6.40;99.90;;;;;;4955176;29;20041;-79
2021/12/12 08:17:43;;;;;;;21.73;14.55;;;6.40;99.90;;;;;;4938014;29;20133;-76
2021/12/12 08:20:13;;;;;;;24.10;14.32;;;6.40;99.90;;;;;;4937741;29;20075;-73
2021/12/12 08:22:39;;;;;;;27.65;15.20;;;6.40;99.90;;;;;;4937276;29;20047;-73
2021/12/12 08:25:09;;;;;;;23.20;14.02;;;7.20;99.90;;;;;;4937882;29;20046;-74
2021/12/12 08:27:35;;;;;;;23.63;15.77;;;6.50;99.90;;;;;;4938651;29;20039;-79
2021/12/12 08:30:03;;;;;;;26.10;15.50;;;6.50;99.90;;;;;;4936250;29;20068;-78
2021/12/12 08:32:29;;;;;;;26.02;16.00;;;6.50;99.90;;;;;;4930358;28;20047;-78
2021/12/12 08:34:55;;;;;;;24.50;15.98;;;6.60;99.90;;;;;;4954713;28;20043;-77
2021/12/12 08:37:21;;;;;;;29.15;16.00;;;7.00;99.90;;;;;;4921221;29;20074;-82
2021/12/12 08:39:48;;;;;;;26.33;15.88;;;6.60;99.90;;;;;;4937404;29;20046;-76
2021/12/12 08:42:14;;;;;;;29.88;16.67;;;6.60;99.90;;;;;;4946022;29;20095;-80
2021/12/12 08:44:41;;;;;;;33.78;17.85;;;7.30;99.90;;;;;;4949254;29;20081;-83
2021/12/12 08:47:09;;;;;;;30.95;17.08;;;7.30;99.90;;;;;;4941568;28;20513;-80
2021/12/12 08:49:40;;;;;;;27.88;17.02;;;6.70;99.90;;;;;;4956867;28;20073;-83
2021/12/12 08:52:14;;;;;;;27.52;16.15;;;6.70;99.90;;;;;;4940604;28;20070;-81
2021/12/12 08:54:42;;;;;;;29.10;16.95;;;6.70;99.90;;;;;;4973780;28;20066;-81
2021/12/12 08:57:30;;;;;;;36.30;18.65;;;6.70;99.90;;;;;;4968407;28;20084;-82
2021/12/12 08:59:57;;;;;;;31.33;17.65;;;6.80;99.90;;;;;;4937307;29;20043;-81
2021/12/12 09:02:24;;;;;;;29.95;17.25;;;6.80;99.90;;;;;;4937338;29;20039;-82
2021/12/12 09:05:00;;;;;;;32.72;19.02;;;6.80;99.90;;;;;;4953616;28;20042;-82
2021/12/12 09:07:35;;;;;;;34.00;18.80;;;7.10;99.90;;;;;;4921277;29;20042;-82
2021/12/12 09:10:07;;;;;;;35.33;19.98;;;7.10;99.90;;;;;;4946024;28;20053;-83
2021/12/12 09:12:49;;;;;;;31.85;18.77;;;6.80;99.90;;;;;;4937234;29;20083;-82
2021/12/12 09:15:38;;;;;;;40.53;20.05;;;6.90;99.90;;;;;;4935943;29;20047;-82
2021/12/12 09:18:18;;;;;;;37.72;19.90;;;6.90;99.90;;;;;;4937010;29;20043;-82
2021/12/12 09:20:53;;;;;;;39.00;19.70;;;6.90;99.90;;;;;;4920984;29;20043;-83
2021/12/12 09:23:49;;;;;;;39.13;20.95;;;7.00;99.90;;;;;;4921347;29;20051;-83
2021/12/12 09:26:21;;;;;;;43.78;22.13;;;7.00;99.90;;;;;;4935342;29;20102;-83
2021/12/12 09:29:11;;;;;;;40.50;21.88;;;7.00;99.90;;;;;;4936965;28;20492;-83
2021/12/12 09:31:49;;;;;;;42.47;21.75;;;7.00;99.90;;;;;;4920217;29;20051;-83
2021/12/12 09:34:19;;;;;;;47.30;22.85;;;7.00;99.90;;;;;;4936905;29;20050;-83
2021/12/12 09:36:55;;;;;;;55.70;24.13;;;7.10;99.90;;;;;;4936701;29;20114;-81
2021/12/12 09:39:35;;;;;;;50.70;24.08;;;7.10;99.90;;;;;;4920943;29;20490;-81
2021/12/12 09:42:34;;;;;;;57.97;24.63;;;7.10;99.90;;;;;;4933221;29;20111;-81
2021/12/12 09:45:42;;;;;;;57.10;25.30;;;7.10;99.90;;;;;;4933861;29;20056;-81
2021/12/12 09:51:16;;;;;;;59.15;26.20;;;7.20;99.90;;;;;;4949836;29;20056;-83
2021/12/12 09:54:13;;;;;;;62.13;26.52;;;7.20;99.90;;;;;;4917811;29;20052;-81
2021/12/12 09:56:56;;;;;;;66.47;28.10;;;7.20;99.90;;;;;;4918464;29;20382;-81
2021/12/12 09:59:48;;;;;;;81.70;29.52;;;7.30;99.90;;;;;;4934905;29;20048;-81
2021/12/12 10:02:52;;;;;;;72.53;28.52;;;7.30;99.90;;;;;;4934676;29;20449;-81
2021/12/12 10:05:18;;;;;;;60.45;27.50;;;7.40;99.90;;;;;;4932470;29;20059;-83
2021/12/12 10:08:12;;;;;;;75.18;29.88;;;7.30;99.90;;;;;;4933503;29;20051;-81
2021/12/12 10:10:55;;;;;;;82.55;29.08;;;7.30;99.90;;;;;;4917376;29;20079;-83
2021/12/12 10:13:44;;;;;;;78.80;30.98;;;7.40;99.90;;;;;;4920874;29;20190;-81
2021/12/12 10:16:35;;;;;;;78.47;30.55;;;7.40;99.90;;;;;;4930406;29;20105;-83
2021/12/12 10:19:35;;;;;;;90.78;31.33;;;7.40;99.90;;;;;;4914904;29;20048;-82
2021/12/12 10:22:10;;;;;;;92.68;32.20;;;7.00;99.90;;;;;;4897021;29;20115;-81
2021/12/12 10:24:46;;;;;;;95.57;32.03;;;7.50;99.90;;;;;;4935599;29;20051;-82
2021/12/12 10:27:47;;;;;;;93.75;32.47;;;7.60;99.90;;;;;;4933441;29;20127;-81
2021/12/12 10:30:14;;;;;;;88.32;29.92;;;7.60;99.90;;;;;;4930245;29;20044;-84
2021/12/12 10:32:51;;;;;;;82.85;30.45;;;7.60;99.90;;;;;;4932552;29;20455;-81
2021/12/12 10:35:45;;;;;;;86.72;30.80;;;7.70;99.90;;;;;;4922720;29;20048;-83
2021/12/12 10:38:36;;;;;;;98.35;30.88;;;7.70;99.90;;;;;;4921123;29;20044;-83
2021/12/12 10:41:10;;;;;;;96.53;30.83;;;7.70;99.90;;;;;;4934711;29;20062;-80
2021/12/12 10:43:56;;;;;;;85.22;30.23;;;7.80;99.90;;;;;;4957279;28;20412;-81
2021/12/12 10:47:03;;;;;;;103.97;31.50;;;8.20;99.90;;;;;;4957030;28;20514;-80
2021/12/12 10:49:37;;;;;;;;;;;7.90;99.90;;;;;;4906559;29;20123;-83
2021/12/12 10:52:20;;;;;;;93.47;30.58;;;7.90;99.90;;;;;;4919841;29;20005;-82
2021/12/12 10:54:56;;;;;;;84.97;30.42;;;7.90;99.90;;;;;;4920460;29;20460;-81
2021/12/12 10:57:26;;;;;;;98.53;31.23;;;8.10;99.90;;;;;;4936548;29;20082;-81
2021/12/12 11:00:05;;;;;;;94.00;31.35;;;8.00;99.90;;;;;;4970711;28;20055;-81
2021/12/12 11:02:35;;;;;;;92.68;31.15;;;8.00;99.90;;;;;;4939457;28;20046;-82
2021/12/12 11:05:13;;;;;;;83.07;30.55;;;8.10;99.90;;;;;;4907250;29;20035;-81
2021/12/12 11:07:51;;;;;;;84.90;31.00;;;8.10;99.90;;;;;;4952231;28;20531;-83
2021/12/12 11:10:31;;;;;;;96.47;31.70;;;8.10;99.90;;;;;;4940840;29;20040;-82
2021/12/12 11:13:25;;;;;;;85.95;30.05;;;8.20;99.90;;;;;;4954954;28;20047;-82
2021/12/12 11:16:11;;;;;;;91.93;29.40;;;8.20;99.90;;;;;;4917652;29;20051;-84
2021/12/12 11:18:46;;;;;;;84.32;29.13;;;8.20;99.90;;;;;;4905016;29;20496;-82
2021/12/12 11:21:27;;;;;;;89.88;30.38;;;8.20;99.90;;;;;;4920200;29;20051;-83
2021/12/12 11:23:56;;;;;;;86.35;29.23;;;8.30;99.90;;;;;;4920359;29;20046;-84
2021/12/12 11:26:46;;;;;;;83.85;29.30;;;8.30;99.90;;;;;;4920448;29;20067;-82
2021/12/12 11:29:18;;;;;;;88.15;28.85;;;8.40;99.90;;;;;;4924444;29;20035;-84
2021/12/12 11:31:46;;;;;;;88.50;28.20;;;8.20;99.90;;;;;;4949332;28;20043;-82
2021/12/12 11:34:15;;;;;;;80.20;27.45;;;8.40;99.90;;;;;;4926892;29;20196;-81
2021/12/12 11:37:03;;;;;;;77.00;27.95;;;8.80;99.90;;;;;;4919884;29;20102;-81
2021/12/12 11:39:48;;;;;;;70.65;26.50;;;8.40;99.90;;;;;;4919795;29;20075;-83
2021/12/12 11:42:36;;;;;;;73.10;27.35;;;8.50;99.90;;;;;;4934926;28;20066;-82
2021/12/12 11:45:03;;;;;;;86.22;26.27;;;8.50;99.90;;;;;;4949699;28;20036;-81
2021/12/12 11:48:02;;;;;;;78.68;26.98;;;9.10;99.90;;;;;;4938936;29;20086;-81
2021/12/12 11:50:55;;;;;;;78.05;27.30;;;8.60;99.90;;;;;;4909005;28;20496;-83
2021/12/12 11:53:48;;;;;;;67.95;25.58;;;8.60;99.90;;;;;;4939872;29;20051;-81
2021/12/12 11:56:16;;;;;;;79.68;25.80;;;8.60;99.90;;;;;;4926020;29;20098;-81
2021/12/12 11:59:04;;;;;;;75.60;26.63;;;8.60;99.90;;;;;;4943683;28;20051;-80
2021/12/12 12:01:51;;;;;;;64.40;23.92;;;8.70;99.90;;;;;;4908470;29;20039;-80
2021/12/12 12:04:35;;;;;;;80.70;26.63;;;8.70;99.90;;;;;;4923325;29;20106;-82
2021/12/12 12:07:27;;;;;;;84.72;26.88;;;8.70;99.90;;;;;;4923203;29;20095;-81
2021/12/12 12:10:09;;;;;;;58.42;24.60;;;8.80;99.90;;;;;;4922240;29;20043;-81
2021/12/12 12:12:53;;;;;;;67.15;25.00;;;8.80;99.90;;;;;;4920525;29;20043;-81
2021/12/12 12:15:38;;;;;;;71.70;24.38;;;8.80;99.90;;;;;;4921097;29;20044;-83
2021/12/12 12:18:40;;;;;;;58.78;23.88;;;8.80;99.90;;;;;;4904257;29;20123;-83
2021/12/12 12:21:44;;;;;;;63.75;24.02;;;8.80;99.90;;;;;;4900791;29;20052;-83
2021/12/12 12:24:13;;;;;;;56.45;22.75;;;8.90;99.90;;;;;;4899740;29;20136;-83
2021/12/12 12:26:58;;;;;;;57.08;22.52;;;8.80;99.90;;;;;;4899784;29;20127;-83
2021/12/12 12:29:33;;;;;;;65.28;22.83;;;8.90;99.90;;;;;;4937118;29;20495;-83
2021/12/12 12:32:23;;;;;;;64.03;22.60;;;8.90;99.90;;;;;;4937808;29;20035;-81
2021/12/12 12:35:26;;;;;;;60.20;22.50;;;8.90;99.90;;;;;;4919952;29;20043;-83
2021/12/12 12:38:23;;;;;;;59.20;21.90;;;8.90;99.90;;;;;;4963262;28;20039;-81
2021/12/12 12:41:10;;;;;;;57.92;22.70;;;8.90;99.90;;;;;;4922153;29;20062;-83
2021/12/12 12:44:18;;;;;;;60.72;23.77;;;9.00;99.90;;;;;;4955270;28;20044;-84
2021/12/12 12:47:29;;;;;;;60.63;22.90;;;9.00;99.90;;;;;;4937680;28;20081;-83
2021/12/12 12:50:16;;;;;;;62.28;22.98;;;8.90;99.90;;;;;;4931092;29;20103;-84
2021/12/12 12:52:53;;;;;;;56.20;22.70;;;9.00;99.90;;;;;;4899957;29;20200;-81
2021/12/12 12:55:34;;;;;;;58.83;21.90;;;9.00;99.90;;;;;;4902656;29;20128;-83
2021/12/12 12:58:14;;;;;;;59.45;23.00;;;9.00;99.90;;;;;;4937691;29;20043;-84
2021/12/12 13:00:42;;;;;;;62.13;22.75;;;9.70;99.90;;;;;;4954812;28;20435;-84
2021/12/12 13:03:26;;;;;;;58.95;20.75;;;9.00;99.90;;;;;;4905838;29;20078;-83
2021/12/12 13:06:00;;;;;;;56.53;20.88;;;9.10;99.90;;;;;;4921742;29;20039;-83
2021/12/12 13:08:48;;;;;;;53.67;19.13;;;9.10;99.90;;;;;;4917692;29;20044;-81
2021/12/12 13:11:29;;;;;;;52.03;19.52;;;9.10;99.90;;;;;;4918560;29;20130;-81
2021/12/12 13:14:18;;;;;;;48.25;18.45;;;9.20;99.90;;;;;;4936774;28;20043;-81
2021/12/12 13:17:13;;;;;;;41.95;17.77;;;9.20;99.90;;;;;;4937180;29;20047;-84
2021/12/12 13:20:01;;;;;;;46.65;17.25;;;9.20;99.90;;;;;;4882911;29;20404;-80
2021/12/12 13:23:09;;;;;;;43.50;17.10;;;9.20;99.90;;;;;;4884179;29;20087;-84
2021/12/12 13:25:43;;;;;;;45.72;17.55;;;9.20;99.90;;;;;;4923962;29;20056;-84
2021/12/12 13:28:32;;;;;;;50.15;18.25;;;9.30;99.90;;;;;;4918052;29;20130;-84
2021/12/12 13:31:20;;;;;;;45.50;17.55;;;9.30;99.90;;;;;;4918437;29;20066;-81
2021/12/12 13:34:11;;;;;;;57.05;18.50;;;9.30;99.90;;;;;;4917851;29;20055;-81
2021/12/12 13:37:13;;;;;;;48.08;17.08;;;9.30;99.90;;;;;;4917920;29;20054;-83
2021/12/12 13:40:16;;;;;;;47.05;18.65;;;9.40;99.90;;;;;;4919255;29;20082;-83